Bay Area Weather


DO NOT USE THIS INFORMATION FOR FLIGHT PLANNING AND/OR NAVIGATION

Bay Area Weather Map


Current METARs

Observation for Reid-Hillview (KRHV) at 05/28/2017 10:47:00 PDT
Airspace now is DELTA. Weather outlook: VFR - visibility 8, ceiling 18000.
station: KRHV
type: routine report, cycle 18 (automatic report)
time: Sun May 28 17:47:00 2017
temperature: 17.0 C
dew point: 10.0 C
wind: NW at 10 knots
visibility: 8 miles
pressure: 1020.0 mb
sky: scattered clouds at 2000 feet
METAR: KRHV 281747Z 32010KT 8SM SCT020 17/10 A3012
Observation for San Jose (KSJC) at 05/28/2017 11:13:00 PDT
Airspace now is CHARLIE. Weather outlook: VFR - visibility 10, ceiling 18000.
station: KSJC
type: routine report, cycle 18 (automatic report)
time: Sun May 28 18:13:00 2017
temperature: 16.7 C
dew point: 11.7 C
wind: variable at 6 knots
visibility: 10 miles
pressure: 1019.3 mb
sky: a few clouds at 1000 feet
     scattered clouds at 1500 feet
remarks:
- Automated station (type 2)
METAR: KSJC 281813Z VRB06KT 10SM FEW010 SCT015 17/12 A3010 RMK AO2 T01670117
Observation for Moffett Field (KNUQ) at 05/28/2017 10:56:00 PDT
Airspace now is DELTA. Weather outlook: Marginal VFR - visibility 10, ceiling 1700.
station: KNUQ
type: routine report, cycle 18 (automatic report)
time: Sun May 28 17:56:00 2017
temperature: 16.7 C
dew point: 11.1 C
wind: N at 7 knots
visibility: 10 miles
pressure: 1020.0 mb
sky: broken clouds at 1700 feet
sea-level pressure: 1020.0 mb
6-hour max temp: 17.2 C
6-hour min temp: 13.3 C
remarks:
- Automated station (type 2)
- 3-hr pressure change 0.1hPa, increasing, then decreasing
METAR: KNUQ 281756Z 01007KT 10SM BKN017 17/11 A3012 RMK AO2 SLP200 T01670111 10172 20133 50001
Observation for Palo Alto (KPAO) at 05/28/2017 10:47:00 PDT
Airspace now is DELTA. Weather outlook: Marginal VFR - visibility 10, ceiling 1500.
station: KPAO
type: routine report, cycle 18 (automatic report)
time: Sun May 28 17:47:00 2017
temperature: 16.0 C
dew point: 12.0 C
wind: N at 8 knots
visibility: 10 miles
pressure: 1019.6 mb
sky: broken clouds at 1500 feet
METAR: KPAO 281747Z 35008KT 10SM BKN015 16/12 A3011
Observation for San Carlos (KSQL) at 05/28/2017 10:47:00 PDT
Airspace now is DELTA. Weather outlook: Marginal VFR - visibility 10, ceiling 1300.
station: KSQL
type: routine report, cycle 18 (automatic report)
time: Sun May 28 17:47:00 2017
temperature: 14.0 C
dew point: 11.0 C
wind: WNW at 5 knots
visibility: 10 miles
pressure: 1020.0 mb
sky: broken clouds at 1300 feet
METAR: KSQL 281747Z 30005KT 10SM BKN013 14/11 A3012
Observation for Half Moon Bay (KHAF) at 05/28/2017 11:15:00 PDT
Airspace now is GOLF. Weather outlook: IFR - visibility 5, ceiling 600.
station: KHAF
type: routine report, cycle 18 (automatic report)
time: Sun May 28 18:15:00 2017
temperature: 12.0 C
dew point: 11.0 C
wind: NW at 8 knots
visibility: 5 miles
pressure: 1020.7 mb
weather: mist
sky: overcast at 600 feet
remarks:
- Automated station (type 2)
METAR: KHAF 281815Z AUTO 32008KT 5SM BR OVC006 12/11 A3014 RMK AO2
Observation for San Francisco (KSFO) at 05/28/2017 10:56:00 PDT
Airspace now is BRAVO. Weather outlook: IFR - visibility 10, ceiling 600.
station: KSFO
type: routine report, cycle 18 (automatic report)
time: Sun May 28 17:56:00 2017
temperature: 13.3 C
dew point: 10.0 C
wind: W at 12 knots
visibility: 10 miles
pressure: 1020.0 mb
sky: a few clouds at 400 feet
     overcast at 600 feet
sea-level pressure: 1019.9 mb
6-hour max temp: 13.3 C
6-hour min temp: 12.2 C
remarks:
- Automated station (type 2)
- 3-hr pressure change 0.3hPa, increasing more slowly
METAR: KSFO 281756Z 26012KT 10SM FEW004 OVC006 13/10 A3012 RMK AO2 SLP199 T01330100 10133 20122 51003
Observation for Oakland (KOAK) at 05/28/2017 10:53:00 PDT
Airspace now is CHARLIE. Weather outlook: IFR - visibility 10, ceiling 800.
station: KOAK
type: routine report, cycle 18 (automatic report)
time: Sun May 28 17:53:00 2017
temperature: 14.4 C
dew point: 11.7 C
wind: W at 6 knots
visibility: 10 miles
pressure: 1020.0 mb
sky: overcast at 800 feet
sea-level pressure: 1019.9 mb
6-hour max temp: 14.4 C
6-hour min temp: 13.3 C
remarks:
- Automated station (type 2)
- 3-hr pressure change 0.1hPa, increasing, then decreasing
- CIG 007V011
METAR: KOAK 281753Z 27006KT 10SM OVC008 14/12 A3012 RMK AO2 CIG 007V011 SLP199 T01440117 10144 20133 50001
Observation for Hayward Executive (KHWD) at 05/28/2017 10:54:00 PDT
Airspace now is DELTA. Weather outlook: IFR - visibility 10, ceiling 700.
station: KHWD
type: routine report, cycle 18 (automatic report)
time: Sun May 28 17:54:00 2017
temperature: 13.9 C
dew point: 9.4 C
wind: W at 6 knots
visibility: 10 miles
pressure: 1020.0 mb
sky: overcast at 700 feet
sea-level pressure: 1020.8 mb
6-hour max temp: 13.9 C
6-hour min temp: 13.3 C
remarks:
- Automated station (type 2)
- 3-hr pressure change 0.2hPa, increasing, then decreasing
METAR: KHWD 281754Z 27006KT 10SM OVC007 14/09 A3012 RMK AO2 SLP208 T01390094 10139 20133 50002
Observation for Livermore (KLVK) at 05/28/2017 11:02:00 PDT
Airspace now is DELTA. Weather outlook: Marginal VFR - visibility 10, ceiling 1500.
station: KLVK
type: routine report, cycle 18 (automatic report)
time: Sun May 28 18:02:00 2017
temperature: 16.1 C
dew point: 11.1 C
wind: variable at 5 knots
visibility: 10 miles
pressure: 1019.0 mb
sky: broken clouds at 1500 feet
remarks:
- Automated station (type 2)
METAR: KLVK 281802Z VRB05KT 10SM BKN015 16/11 A3009 RMK AO2 T01610111
Observation for South County (KE16) at 05/11/2017 16:00:00 PDT (1619:19 hours old: probably stale)
Airspace now is GOLF. Weather outlook: VFR - visibility 10, ceiling 18000.
station: KE16
type: routine report, cycle 23 (automatic report)
time: Thu May 11 23:00:00 2017
temperature: 20.0 C
dew point: 10.0 C
wind: SSW at 9 knots, gusting to 14 knots
visibility: 10 miles
pressure: 1019.6 mb
sky: clear
remarks:
- Automated station (type 2)
METAR: KE16 112300Z AUTO 21009G14KT 10SM CLR 20/10 A3011 RMK AO2
Observation for Hollister (KCVH) at 05/28/2017 11:05:00 PDT
Airspace now is GOLF. Weather outlook: VFR - visibility 10, ceiling 18000.
station: KCVH
type: routine report, cycle 18 (automatic report)
time: Sun May 28 18:05:00 2017
temperature: 19.0 C
dew point: 12.0 C
wind: WNW at 5 knots
visibility: 10 miles
pressure: 1019.0 mb
sky: clear
remarks:
- Automated station
METAR: KCVH 281805Z AUTO 30005KT 10SM CLR 19/12 A3009 RMK AO1
Observation for Watsonville (KWVI) at 05/28/2017 10:53:00 PDT
Airspace now is GOLF. Weather outlook: VFR - visibility 10, ceiling 18000.
station: KWVI
type: routine report, cycle 18 (automatic report)
time: Sun May 28 17:53:00 2017
temperature: 16.7 C
dew point: 12.8 C
wind: S at 7 knots
visibility: 10 miles
pressure: 1019.3 mb
sky: a few clouds at 1400 feet
sea-level pressure: 1019.1 mb
6-hour max temp: 16.7 C
6-hour min temp: 8.3 C
remarks:
- Automated station (type 2)
- 3-hr pressure change 0.1hPa, increasing, then decreasing
METAR: KWVI 281753Z AUTO 19007KT 10SM FEW014 17/13 A3010 RMK AO2 SLP191 T01670128 10167 20083 50001
Observation for Napa County (KAPC) at 05/28/2017 10:54:00 PDT
Airspace now is DELTA. Weather outlook: Marginal VFR - visibility 10, ceiling 1000.
station: KAPC
type: routine report, cycle 18 (automatic report)
time: Sun May 28 17:54:00 2017
temperature: 16.1 C
dew point: 11.7 C
wind: SW at 5 knots
visibility: 10 miles
pressure: 1019.0 mb
sky: overcast at 1000 feet
sea-level pressure: 1017.9 mb
6-hour max temp: 16.1 C
6-hour min temp: 13.3 C
remarks:
- Automated station (type 2)
- 3-hr pressure change 0.3hPa, decreasing more quickly
METAR: KAPC 281754Z 23005KT 10SM OVC010 16/12 A3009 RMK AO2 SLP179 T01610117 10161 20133 58003
Observation for Santa Rosa (KSTS) at 05/28/2017 10:53:00 PDT
Airspace now is DELTA. Weather outlook: VFR - visibility 10, ceiling 18000.
station: KSTS
type: routine report, cycle 18 (automatic report)
time: Sun May 28 17:53:00 2017
temperature: 15.6 C
dew point: 11.1 C
wind: variable at 5 knots
visibility: 10 miles
pressure: 1018.3 mb
sky: scattered clouds at 1200 feet
sea-level pressure: 1017.7 mb
6-hour max temp: 16.1 C
6-hour min temp: 11.1 C
remarks:
- Automated station (type 2)
- 3-hr pressure change 0.4hPa, decreasing more quickly
METAR: KSTS 281753Z VRB05KT 10SM SCT012 16/11 A3007 RMK AO2 SLP177 T01560111 10161 20111 58004

Approximate Bay Tour Route